Time;durP1;ratioP1;P1;durP2;ratioP2;P2;SDS_P1;SDS_P2;PMS_P1;PMS_P2;Temp;Humidity;BMP_temperature;BMP_pressure;BME280_temperature;BME280_humidity;BME280_pressure;Samples;Min_cycle;Max_cycle;Signal;HPM_P1;HPM_P2
2021/11/27 00:00:45;;;;;;;23.17;20.80;;;4.80;99.90;;;;;;5060685;28;20120;-67
2021/11/27 00:03:12;;;;;;;27.70;20.75;;;4.80;99.90;;;;;;5061671;28;20039;-67
2021/11/27 00:05:38;;;;;;;22.42;20.00;;;4.90;99.90;;;;;;5057041;28;20047;-67
2021/11/27 00:08:06;;;;;;;22.63;20.27;;;4.90;99.90;;;;;;5062555;28;20040;-67
2021/11/27 00:10:35;;;;;;;22.88;20.02;;;4.80;99.90;;;;;;5061512;28;20123;-67
2021/11/27 00:13:02;;;;;;;25.52;19.67;;;4.80;99.90;;;;;;5062740;28;20534;-67
2021/11/27 00:15:28;;;;;;;21.50;18.85;;;4.80;99.90;;;;;;5062669;28;20052;-67
2021/11/27 00:17:55;;;;;;;21.90;19.08;;;4.80;99.90;;;;;;5064842;28;20458;-67
2021/11/27 00:20:26;;;;;;;20.80;18.00;;;4.80;99.90;;;;;;5063653;28;20122;-67
2021/11/27 00:22:52;;;;;;;21.33;19.00;;;4.80;99.90;;;;;;5064698;28;20032;-67
2021/11/27 00:25:18;;;;;;;23.65;19.58;;;4.80;99.90;;;;;;5063581;28;20045;-67
2021/11/27 00:27:44;;;;;;;22.30;19.30;;;4.80;99.90;;;;;;5064890;28;20170;-67
2021/11/27 00:30:16;;;;;;;23.92;18.10;;;4.80;99.90;;;;;;5063910;28;20113;-67
2021/11/27 00:32:42;;;;;;;19.52;17.45;;;4.80;99.90;;;;;;5061451;28;20036;-67
2021/11/27 00:35:09;;;;;;;24.30;19.05;;;4.80;99.90;;;;;;5063100;28;20493;-67
2021/11/27 00:37:34;;;;;;;22.15;18.50;;;4.80;99.90;;;;;;5059803;28;20037;-67
2021/11/27 00:40:00;;;;;;;19.42;16.58;;;4.80;99.90;;;;;;5061357;28;20047;-67
2021/11/27 00:42:26;;;;;;;18.90;15.93;;;4.80;99.90;;;;;;5061292;28;20083;-67
2021/11/27 00:44:51;;;;;;;19.70;16.65;;;4.80;99.90;;;;;;5064764;28;20067;-67
2021/11/27 00:47:17;;;;;;;16.92;15.13;;;4.70;99.90;;;;;;5062525;28;20051;-67
2021/11/27 00:49:43;;;;;;;20.30;15.30;;;4.70;99.90;;;;;;5066994;28;20036;-67
2021/11/27 00:52:09;;;;;;;16.92;15.02;;;4.70;99.90;;;;;;5064337;28;20047;-67
2021/11/27 00:54:35;;;;;;;18.60;14.65;;;4.70;99.90;;;;;;5061176;28;20044;-67
2021/11/27 00:57:00;;;;;;;17.55;13.98;;;4.60;99.90;;;;;;5062299;28;20478;-67
2021/11/27 00:59:26;;;;;;;15.55;13.90;;;4.60;99.90;;;;;;5063506;28;20033;-67
2021/11/27 01:01:52;;;;;;;15.68;13.07;;;4.60;99.90;;;;;;5061556;28;20037;-67
2021/11/27 01:04:18;;;;;;;14.90;13.30;;;4.60;99.90;;;;;;5061345;28;20048;-67
2021/11/27 01:06:43;;;;;;;15.23;13.35;;;4.50;99.90;;;;;;5065889;28;20032;-67
2021/11/27 01:09:12;;;;;;;14.77;12.98;;;4.50;99.90;;;;;;5063149;28;20109;-67
2021/11/27 01:11:42;;;;;;;14.93;12.35;;;4.50;99.90;;;;;;5062360;28;20040;-67
2021/11/27 01:14:14;;;;;;;15.27;11.90;;;4.40;99.90;;;;;;5059423;28;20036;-67
2021/11/27 01:16:45;;;;;;;12.82;11.52;;;4.30;99.90;;;;;;5060296;28;20046;-67
2021/11/27 01:19:11;;;;;;;19.75;11.50;;;4.20;99.90;;;;;;5094214;28;20040;-67
2021/11/27 01:21:41;;;;;;;14.43;12.88;;;4.30;99.90;;;;;;5065798;28;20033;-67
2021/11/27 01:24:10;;;;;;;19.35;14.00;;;4.20;99.90;;;;;;5067565;28;20044;-67
2021/11/27 01:26:38;;;;;;;19.98;13.90;;;4.20;99.90;;;;;;5066081;28;20044;-67
2021/11/27 01:29:04;;;;;;;16.98;14.93;;;4.20;99.90;;;;;;5095204;27;20050;-67
2021/11/27 01:31:30;;;;;;;18.10;13.52;;;4.20;99.90;;;;;;5065099;28;20045;-67
2021/11/27 01:33:56;;;;;;;18.25;14.43;;;4.20;99.90;;;;;;5064101;28;20540;-67
2021/11/27 01:36:22;;;;;;;21.15;15.77;;;4.20;99.90;;;;;;5068386;28;20066;-67
2021/11/27 01:38:48;;;;;;;24.60;16.95;;;4.20;99.90;;;;;;5063851;28;20037;-67
2021/11/27 01:41:15;;;;;;;20.35;16.02;;;4.30;99.90;;;;;;5067237;28;20039;-67
2021/11/27 01:43:42;;;;;;;19.52;16.00;;;4.30;99.90;;;;;;5065324;28;20055;-67
2021/11/27 01:46:08;;;;;;;22.95;17.17;;;4.30;99.90;;;;;;5068451;28;20052;-67
2021/11/27 01:48:35;;;;;;;20.10;16.13;;;4.30;99.90;;;;;;5064091;28;20046;-67
2021/11/27 01:51:04;;;;;;;21.00;17.13;;;4.40;99.90;;;;;;5066981;28;20040;-67
2021/11/27 01:53:32;;;;;;;19.05;16.85;;;4.40;99.90;;;;;;5063926;28;21586;-67
2021/11/27 01:56:00;;;;;;;23.95;18.48;;;4.40;99.90;;;;;;5066105;28;20065;-67
2021/11/27 01:58:28;;;;;;;21.50;16.67;;;4.40;99.90;;;;;;5064217;28;20037;-67
2021/11/27 02:01:03;;;;;;;19.08;16.85;;;4.50;99.90;;;;;;5066928;28;20032;-67
2021/11/27 02:03:29;;;;;;;21.13;16.73;;;4.40;99.90;;;;;;5066246;28;20055;-67
2021/11/27 02:05:55;;;;;;;23.65;17.23;;;4.50;99.90;;;;;;5066810;28;20102;-67
2021/11/27 02:08:21;;;;;;;23.35;17.80;;;4.50;99.90;;;;;;5066845;28;20032;-67
2021/11/27 02:10:47;;;;;;;23.45;18.02;;;4.50;99.90;;;;;;5065490;28;20489;-67
2021/11/27 02:13:13;;;;;;;23.90;18.58;;;4.50;99.90;;;;;;5093869;28;20053;-67
2021/11/27 02:15:40;;;;;;;22.95;18.13;;;4.50;99.90;;;;;;5063955;28;20059;-67
2021/11/27 02:18:06;;;;;;;23.13;18.83;;;4.50;99.90;;;;;;5093282;28;20757;-67
2021/11/27 02:20:36;;;;;;;26.13;20.23;;;4.60;99.90;;;;;;5098974;28;20056;-67
2021/11/27 02:26:44;;;;;;;22.38;18.08;;;4.60;99.90;;;;;;5065463;28;20035;-67
2021/11/27 02:29:18;;;;;;;22.58;19.00;;;4.60;99.90;;;;;;5065434;28;20036;-67
2021/11/27 02:31:44;;;;;;;24.25;19.25;;;4.60;99.90;;;;;;5063687;28;20029;-67
2021/11/27 02:34:11;;;;;;;25.17;19.60;;;4.60;99.90;;;;;;5064472;28;20076;-67
2021/11/27 02:36:42;;;;;;;24.13;19.90;;;4.60;99.90;;;;;;5066413;28;20082;-67
2021/11/27 02:39:11;;;;;;;24.00;19.35;;;4.60;99.90;;;;;;5064560;28;20754;-67
2021/11/27 02:41:37;;;;;;;25.58;20.02;;;4.60;99.90;;;;;;5064501;28;20081;-67
2021/11/27 02:44:03;;;;;;;25.80;20.52;;;4.60;99.90;;;;;;5078075;28;20478;-67
2021/11/27 02:46:29;;;;;;;29.50;20.60;;;4.70;99.90;;;;;;5064738;28;20083;-67
2021/11/27 02:48:54;;;;;;;25.75;19.40;;;4.70;99.90;;;;;;5064254;28;20033;-67
2021/11/27 02:51:20;;;;;;;26.02;20.35;;;4.80;99.90;;;;;;5064670;28;20032;-67
2021/11/27 02:53:47;;;;;;;25.38;20.42;;;4.80;99.90;;;;;;5065781;28;20443;-67
2021/11/27 02:56:12;;;;;;;24.52;20.00;;;4.80;99.90;;;;;;5061801;28;20048;-67
2021/11/27 02:58:38;;;;;;;30.80;20.48;;;4.70;99.90;;;;;;5064996;28;20032;-67
2021/11/27 03:01:08;;;;;;;25.60;20.77;;;4.80;99.90;;;;;;5064370;28;20048;-67
2021/11/27 03:03:36;;;;;;;28.45;21.42;;;4.70;99.90;;;;;;5060832;28;20040;-67
2021/11/27 03:06:02;;;;;;;30.52;21.50;;;4.80;99.90;;;;;;5062155;28;20168;-67
2021/11/27 03:08:28;;;;;;;27.30;20.20;;;4.80;99.90;;;;;;5062562;28;20089;-67
2021/11/27 03:10:53;;;;;;;32.85;22.13;;;4.80;99.90;;;;;;5065076;28;20124;-67
2021/11/27 03:13:32;;;;;;;27.67;21.40;;;4.80;99.90;;;;;;5060214;28;20065;-67
2021/11/27 03:15:58;;;;;;;36.50;23.48;;;4.80;99.90;;;;;;5065869;28;20040;-67
2021/11/27 03:18:24;;;;;;;28.13;21.17;;;4.80;99.90;;;;;;5060498;28;20100;-67
2021/11/27 03:20:51;;;;;;;27.35;21.73;;;4.70;99.90;;;;;;5066249;28;20443;-67
2021/11/27 03:23:18;;;;;;;28.15;22.92;;;4.80;99.90;;;;;;5064686;28;20040;-67
2021/11/27 03:25:44;;;;;;;24.92;19.75;;;4.90;99.90;;;;;;5063983;28;20045;-67
2021/11/27 03:28:10;;;;;;;26.15;20.60;;;4.90;99.90;;;;;;5063476;28;20055;-67
2021/11/27 03:30:35;;;;;;;28.65;21.75;;;4.90;99.90;;;;;;5061978;28;20044;-67
2021/11/27 03:33:01;;;;;;;26.38;21.00;;;4.90;99.90;;;;;;5063599;28;20040;-67
2021/11/27 03:35:27;;;;;;;24.58;20.88;;;4.90;99.90;;;;;;5061309;28;20036;-67
2021/11/27 03:37:53;;;;;;;25.63;20.33;;;4.90;99.90;;;;;;5065979;28;20029;-67
2021/11/27 03:40:19;;;;;;;27.23;21.48;;;4.90;99.90;;;;;;5063496;28;20371;-66
2021/11/27 03:42:45;;;;;;;27.13;22.05;;;4.90;99.90;;;;;;5062465;28;20049;-67
2021/11/27 03:45:15;;;;;;;24.30;21.00;;;4.90;99.90;;;;;;5063265;28;20037;-67
2021/11/27 03:48:12;;;;;;;30.05;22.42;;;4.90;99.90;;;;;;5062258;28;20079;-67
2021/11/27 03:50:51;;;;;;;24.08;21.48;;;5.00;99.90;;;;;;5095369;28;20044;-67
2021/11/27 03:53:21;;;;;;;30.88;22.65;;;5.00;99.90;;;;;;5061762;28;20067;-66
2021/11/27 03:55:46;;;;;;;26.38;22.40;;;4.90;99.90;;;;;;5066846;28;20123;-68
2021/11/27 03:58:13;;;;;;;27.05;22.73;;;5.00;99.90;;;;;;5061337;28;20127;-67
2021/11/27 04:00:39;;;;;;;25.20;22.50;;;5.00;99.90;;;;;;5064820;28;20087;-67
2021/11/27 04:03:07;;;;;;;24.95;21.67;;;5.00;99.90;;;;;;5065517;28;20032;-67
2021/11/27 04:05:43;;;;;;;26.33;21.52;;;5.00;99.90;;;;;;5041701;28;20048;-67
2021/11/27 04:08:09;;;;;;;31.30;24.52;;;5.00;99.90;;;;;;5058794;28;20033;-67
2021/11/27 04:10:35;;;;;;;29.35;22.92;;;4.90;99.90;;;;;;5056777;28;20529;-67
2021/11/27 04:13:01;;;;;;;28.15;23.52;;;4.90;99.90;;;;;;5059984;28;20111;-67
2021/11/27 04:15:27;;;;;;;26.13;22.17;;;5.00;99.90;;;;;;5057423;28;20028;-67
2021/11/27 04:17:53;;;;;;;25.90;22.17;;;5.00;99.90;;;;;;5058888;28;20047;-67
2021/11/27 04:20:19;;;;;;;25.20;21.95;;;5.00;99.90;;;;;;5057700;28;20041;-67
2021/11/27 04:22:45;;;;;;;26.30;23.25;;;5.00;99.90;;;;;;5057056;28;20124;-67
2021/11/27 04:25:12;;;;;;;28.13;23.15;;;5.00;99.90;;;;;;5060835;28;20045;-67
2021/11/27 04:27:37;;;;;;;35.85;25.00;;;5.00;99.90;;;;;;5058079;28;20060;-67
2021/11/27 04:30:07;;;;;;;34.50;25.23;;;4.90;99.90;;;;;;5058061;28;20049;-67
2021/11/27 04:32:33;;;;;;;27.55;23.70;;;5.00;99.90;;;;;;5090155;28;20069;-67
2021/11/27 04:34:59;;;;;;;31.55;24.27;;;4.90;99.90;;;;;;5056967;28;20076;-67
2021/11/27 04:37:25;;;;;;;35.88;26.10;;;4.90;99.90;;;;;;5057579;28;20044;-67
2021/11/27 04:39:50;;;;;;;31.73;24.42;;;4.90;99.90;;;;;;5059285;28;20049;-67
2021/11/27 04:42:17;;;;;;;31.48;24.65;;;4.90;99.90;;;;;;5058020;28;20045;-67
2021/11/27 04:44:42;;;;;;;37.03;25.58;;;4.90;99.90;;;;;;5091286;28;20040;-67
2021/11/27 04:47:08;;;;;;;29.58;24.95;;;4.90;99.90;;;;;;5060136;28;20394;-67
2021/11/27 04:49:34;;;;;;;29.33;25.67;;;4.90;99.90;;;;;;5061869;28;20036;-67
2021/11/27 04:51:59;;;;;;;33.42;25.52;;;4.90;99.90;;;;;;5060070;28;20037;-67
2021/11/27 04:54:25;;;;;;;33.20;25.77;;;4.90;99.90;;;;;;5059663;28;20056;-67
2021/11/27 04:56:50;;;;;;;34.90;24.35;;;5.00;99.90;;;;;;5077291;28;20041;-67
2021/11/27 04:59:16;;;;;;;36.40;26.75;;;4.90;99.90;;;;;;5065472;28;20499;-67
2021/11/27 05:01:42;;;;;;;34.95;26.58;;;4.90;99.90;;;;;;5064140;28;20040;-67
2021/11/27 05:04:07;;;;;;;36.30;26.05;;;5.00;99.90;;;;;;5061683;28;20122;-67
2021/11/27 05:06:33;;;;;;;36.40;26.73;;;4.90;99.90;;;;;;5062888;28;20052;-67
2021/11/27 05:08:59;;;;;;;33.78;27.27;;;5.00;99.90;;;;;;5064746;28;20551;-67
2021/11/27 05:11:25;;;;;;;34.15;26.55;;;4.90;99.90;;;;;;5064822;28;20170;-67
2021/11/27 05:13:50;;;;;;;40.00;28.65;;;4.90;99.90;;;;;;5060405;28;20045;-67
2021/11/27 05:16:16;;;;;;;37.92;26.77;;;4.90;99.90;;;;;;5061531;28;20399;-67
2021/11/27 05:18:43;;;;;;;39.22;28.17;;;4.90;99.90;;;;;;5060455;28;20493;-67
2021/11/27 05:21:09;;;;;;;38.72;27.20;;;4.90;99.90;;;;;;5094564;28;20049;-67
2021/11/27 05:23:35;;;;;;;32.05;26.98;;;4.90;99.90;;;;;;5064049;28;20490;-67
2021/11/27 05:26:01;;;;;;;36.95;27.33;;;4.90;99.90;;;;;;5061565;28;20393;-67
2021/11/27 05:28:26;;;;;;;39.60;28.67;;;4.90;99.90;;;;;;5060482;28;20040;-67
2021/11/27 05:30:53;;;;;;;35.70;28.08;;;4.90;99.90;;;;;;5063595;28;20036;-67
2021/11/27 05:33:24;;;;;;;38.40;26.60;;;4.90;99.90;;;;;;5062429;28;20040;-67
2021/11/27 05:35:51;;;;;;;33.47;26.55;;;4.90;99.90;;;;;;5061881;28;20488;-67
2021/11/27 05:38:17;;;;;;;39.53;27.15;;;4.90;99.90;;;;;;5095746;28;20052;-67
2021/11/27 05:40:42;;;;;;;34.75;25.98;;;4.90;99.90;;;;;;5046287;28;20040;-67
2021/11/27 05:43:08;;;;;;;30.55;24.85;;;4.90;99.90;;;;;;5060952;28;21278;-67
2021/11/27 05:45:34;;;;;;;32.88;25.70;;;4.90;99.90;;;;;;5062657;28;20707;-67
2021/11/27 05:48:03;;;;;;;41.05;27.30;;;4.90;99.90;;;;;;5063353;28;20862;-67
2021/11/27 05:50:29;;;;;;;36.90;26.88;;;4.90;99.90;;;;;;5060484;28;20037;-67
2021/11/27 05:52:55;;;;;;;34.63;25.38;;;4.90;99.90;;;;;;5061928;28;20149;-67
2021/11/27 05:55:22;;;;;;;34.95;25.27;;;4.90;99.90;;;;;;5061268;28;20123;-67
2021/11/27 05:57:48;;;;;;;40.30;27.50;;;4.90;99.90;;;;;;5063762;28;20056;-67
2021/11/27 06:00:14;;;;;;;33.15;25.30;;;4.90;99.90;;;;;;5062392;28;20419;-67
2021/11/27 06:02:41;;;;;;;37.15;26.58;;;5.00;99.90;;;;;;5061345;28;20510;-67
2021/11/27 06:05:08;;;;;;;39.67;26.10;;;4.90;99.90;;;;;;5064056;28;20048;-67
2021/11/27 06:07:33;;;;;;;39.03;25.88;;;5.00;99.90;;;;;;5042422;28;20163;-67
2021/11/27 06:09:59;;;;;;;36.28;24.98;;;5.00;99.90;;;;;;5060454;28;20119;-67
2021/11/27 06:12:25;;;;;;;32.50;24.27;;;4.90;99.90;;;;;;5094279;28;20115;-67
2021/11/27 06:14:50;;;;;;;37.55;26.30;;;5.00;99.90;;;;;;5060706;28;20102;-67
2021/11/27 06:17:16;;;;;;;32.15;23.65;;;5.00;99.90;;;;;;5064260;28;20033;-67
2021/11/27 06:19:43;;;;;;;31.83;23.45;;;5.00;99.90;;;;;;5061274;28;20063;-67
2021/11/27 06:22:08;;;;;;;38.35;24.77;;;5.00;99.90;;;;;;5061244;28;20119;-67
2021/11/27 06:24:34;;;;;;;38.33;25.05;;;4.90;99.90;;;;;;5058890;28;20135;-67
2021/11/27 06:27:00;;;;;;;33.97;23.90;;;4.90;99.90;;;;;;5061547;28;20044;-67
2021/11/27 06:29:25;;;;;;;33.88;23.67;;;5.00;99.90;;;;;;5061378;28;20067;-67
2021/11/27 06:31:51;;;;;;;35.95;24.58;;;5.00;99.90;;;;;;5061564;28;20116;-67
2021/11/27 06:34:17;;;;;;;32.20;22.40;;;5.00;99.90;;;;;;5060290;28;20107;-67
2021/11/27 06:36:43;;;;;;;37.65;25.33;;;5.00;99.90;;;;;;5060749;28;20113;-67
2021/11/27 06:39:08;;;;;;;35.58;23.70;;;5.00;99.90;;;;;;5061998;28;21705;-67
2021/11/27 06:41:34;;;;;;;37.00;22.90;;;5.00;99.90;;;;;;5059804;28;20033;-67
2021/11/27 06:43:59;;;;;;;29.70;22.13;;;5.00;99.90;;;;;;5062238;28;20047;-67
2021/11/27 06:46:25;;;;;;;35.70;22.85;;;5.00;99.90;;;;;;5060921;28;20501;-67
2021/11/27 06:48:51;;;;;;;32.55;22.52;;;5.00;99.90;;;;;;5056982;28;20515;-67
2021/11/27 06:51:17;;;;;;;35.33;22.20;;;5.00;99.90;;;;;;5061075;28;20449;-67
2021/11/27 06:53:44;;;;;;;31.90;23.30;;;5.00;99.90;;;;;;5059042;28;20123;-67
2021/11/27 06:56:09;;;;;;;32.70;23.15;;;5.00;99.90;;;;;;5062756;28;20043;-67
2021/11/27 06:58:38;;;;;;;43.20;24.10;;;5.00;99.90;;;;;;5045036;28;20490;-67
2021/11/27 07:01:04;;;;;;;37.80;23.40;;;5.00;99.90;;;;;;5060648;28;20036;-67
2021/11/27 07:03:30;;;;;;;32.33;21.90;;;5.00;99.90;;;;;;5060089;28;20070;-67
2021/11/27 07:05:55;;;;;;;37.38;23.55;;;5.00;99.90;;;;;;5064893;28;20044;-67
2021/11/27 07:08:21;;;;;;;36.53;21.80;;;5.00;99.90;;;;;;5058722;28;20054;-67
2021/11/27 07:10:50;;;;;;;33.28;22.08;;;5.00;99.90;;;;;;5064588;28;20064;-67
2021/11/27 07:13:18;;;;;;;35.63;22.38;;;5.00;99.90;;;;;;5060765;28;20658;-67
2021/11/27 07:15:43;;;;;;;35.22;22.33;;;5.00;99.90;;;;;;5060675;28;20045;-67
2021/11/27 07:18:09;;;;;;;33.63;20.75;;;5.00;99.90;;;;;;5060816;28;20032;-67
2021/11/27 07:20:35;;;;;;;36.38;21.13;;;5.00;99.90;;;;;;5060459;28;20047;-67
2021/11/27 07:23:01;;;;;;;32.15;20.48;;;5.00;99.90;;;;;;5059036;28;20036;-67
2021/11/27 07:25:30;;;;;;;38.08;21.65;;;5.00;99.90;;;;;;5059486;28;20064;-67
2021/11/27 07:27:56;;;;;;;31.33;19.55;;;5.00;99.90;;;;;;5095400;28;20048;-67
2021/11/27 07:30:22;;;;;;;40.80;21.45;;;5.00;99.90;;;;;;5060108;28;20037;-67
2021/11/27 07:32:48;;;;;;;31.75;19.65;;;5.10;99.90;;;;;;5061705;28;20375;-67
2021/11/27 07:35:14;;;;;;;39.05;20.23;;;5.10;99.90;;;;;;5059044;28;20113;-67
2021/11/27 07:37:39;;;;;;;33.42;19.60;;;5.10;99.90;;;;;;5058637;28;20410;-67
2021/11/27 07:40:08;;;;;;;35.75;20.02;;;5.10;99.90;;;;;;5059265;28;20032;-67
2021/11/27 07:42:34;;;;;;;35.28;19.45;;;5.10;99.90;;;;;;5074835;28;20036;-67
2021/11/27 07:45:00;;;;;;;34.13;19.25;;;5.10;99.90;;;;;;5060621;28;20044;-67
2021/11/27 07:47:26;;;;;;;35.15;19.23;;;5.10;99.90;;;;;;5058563;28;20052;-67
2021/11/27 07:49:51;;;;;;;34.28;18.15;;;5.10;99.90;;;;;;5066139;28;20517;-66
2021/11/27 07:52:21;;;;;;;31.98;17.95;;;5.10;99.90;;;;;;5061002;28;20132;-67
2021/11/27 07:54:48;;;;;;;29.05;16.83;;;5.10;99.90;;;;;;5064576;28;20092;-67
2021/11/27 07:57:13;;;;;;;28.33;16.02;;;5.10;99.90;;;;;;5058556;28;20062;-67
2021/11/27 07:59:39;;;;;;;25.33;15.15;;;5.10;99.90;;;;;;5091430;28;20133;-67
2021/11/27 08:02:05;;;;;;;28.05;15.48;;;5.10;99.90;;;;;;5092883;28;20131;-67
2021/11/27 08:04:32;;;;;;;25.05;13.88;;;5.10;99.90;;;;;;5060458;28;20079;-67
2021/11/27 08:06:57;;;;;;;25.08;13.98;;;5.20;99.90;;;;;;5061351;28;20044;-67
2021/11/27 08:09:23;;;;;;;22.55;12.75;;;5.10;99.90;;;;;;5057027;28;20053;-67
2021/11/27 08:11:49;;;;;;;28.65;14.20;;;5.20;99.90;;;;;;5091789;28;20044;-67
2021/11/27 08:14:14;;;;;;;21.60;12.63;;;5.20;99.90;;;;;;5060783;28;20052;-67
2021/11/27 08:16:40;;;;;;;19.88;11.93;;;5.20;99.90;;;;;;5059387;28;20044;-67
2021/11/27 08:19:06;;;;;;;23.40;11.20;;;5.20;99.90;;;;;;5062480;28;20036;-67
2021/11/27 08:21:32;;;;;;;19.77;10.50;;;5.20;99.90;;;;;;5059344;28;20040;-67
2021/11/27 08:23:58;;;;;;;19.10;10.80;;;5.20;99.90;;;;;;5059218;28;20950;-66
2021/11/27 08:26:23;;;;;;;18.60;9.43;;;5.20;99.90;;;;;;5090993;27;20055;-67
2021/11/27 08:28:49;;;;;;;15.50;9.50;;;5.20;99.90;;;;;;5056074;28;20051;-67
2021/11/27 08:31:15;;;;;;;18.27;9.00;;;5.30;99.90;;;;;;5057209;28;20072;-66
2021/11/27 08:33:41;;;;;;;18.10;8.40;;;5.30;99.90;;;;;;5059488;28;20090;-67
2021/11/27 08:36:07;;;;;;;18.20;8.73;;;5.40;99.90;;;;;;5059209;28;20043;-67
2021/11/27 08:38:33;;;;;;;12.05;6.13;;;5.40;99.90;;;;;;5060534;28;20097;-67
2021/11/27 08:40:59;;;;;;;14.98;7.07;;;5.50;99.90;;;;;;5062312;28;20433;-67
2021/11/27 08:43:24;;;;;;;14.57;6.10;;;5.50;99.90;;;;;;5090824;28;20045;-67
2021/11/27 08:45:50;;;;;;;10.05;4.97;;;5.50;99.90;;;;;;5056793;28;20040;-67
2021/11/27 08:48:17;;;;;;;18.77;6.25;;;5.60;99.90;;;;;;5057929;28;20172;-67
2021/11/27 08:50:43;;;;;;;15.02;4.40;;;5.60;99.90;;;;;;5060805;28;20040;-67
2021/11/27 08:53:09;;;;;;;11.77;4.85;;;5.60;99.90;;;;;;5055450;28;20093;-67
2021/11/27 08:55:35;;;;;;;9.57;4.80;;;5.60;99.90;;;;;;5058709;28;20037;-67
2021/11/27 08:58:06;;;;;;;7.03;4.75;;;5.60;99.90;;;;;;5058596;28;21106;-67
2021/11/27 09:00:32;;;;;;;11.75;4.78;;;5.60;99.90;;;;;;5061277;28;20947;-67
2021/11/27 09:02:59;;;;;;;12.18;5.57;;;5.60;99.90;;;;;;5054666;28;20041;-67
2021/11/27 09:05:27;;;;;;;12.68;5.18;;;5.60;99.90;;;;;;5058109;28;20036;-67
2021/11/27 09:07:52;;;;;;;7.40;4.15;;;5.60;99.90;;;;;;5057056;28;20067;-67
2021/11/27 09:10:19;;;;;;;9.07;4.93;;;5.60;99.90;;;;;;5059068;28;20041;-67
2021/11/27 09:12:45;;;;;;;5.38;4.57;;;5.60;99.90;;;;;;5058576;28;20033;-67
2021/11/27 09:15:11;;;;;;;6.50;3.50;;;5.60;99.90;;;;;;5056603;28;20501;-67
2021/11/27 09:17:36;;;;;;;6.25;2.85;;;5.60;99.90;;;;;;5058053;28;20105;-67
2021/11/27 09:20:03;;;;;;;6.70;3.10;;;5.60;99.90;;;;;;5057329;28;20037;-67
2021/11/27 09:22:28;;;;;;;7.65;3.25;;;5.50;99.90;;;;;;5058168;28;20033;-67
2021/11/27 09:24:54;;;;;;;6.40;2.55;;;5.50;99.90;;;;;;5059442;28;20117;-67
2021/11/27 09:27:20;;;;;;;6.20;2.75;;;5.50;99.90;;;;;;5059943;28;20032;-67
2021/11/27 09:29:47;;;;;;;4.43;2.30;;;5.50;99.90;;;;;;5055947;28;20052;-67
2021/11/27 09:32:14;;;;;;;4.63;2.55;;;5.50;99.90;;;;;;5058154;28;20062;-67
2021/11/27 09:34:40;;;;;;;7.18;2.75;;;5.50;99.90;;;;;;5057206;28;20037;-67
2021/11/27 09:37:07;;;;;;;7.30;2.60;;;5.50;99.90;;;;;;5061435;28;20110;-67
2021/11/27 09:39:34;;;;;;;4.05;2.50;;;5.50;99.90;;;;;;5055817;28;20657;-67
2021/11/27 09:42:00;;;;;;;4.50;2.90;;;5.50;99.90;;;;;;5062044;28;20117;-67
2021/11/27 09:44:34;;;;;;;4.93;3.20;;;5.40;99.90;;;;;;5062274;28;20053;-67
2021/11/27 09:47:01;;;;;;;5.25;2.88;;;5.50;99.90;;;;;;5061883;28;20131;-67
2021/11/27 09:49:28;;;;;;;7.18;3.90;;;5.50;99.90;;;;;;5060069;28;20608;-66
2021/11/27 09:51:54;;;;;;;7.65;3.67;;;5.50;99.90;;;;;;5063043;28;20170;-67
2021/11/27 09:54:21;;;;;;;4.38;3.97;;;5.50;99.90;;;;;;5093634;27;20215;-67
2021/11/27 09:56:48;;;;;;;5.35;4.00;;;5.50;99.90;;;;;;5061987;28;20126;-64
2021/11/27 09:59:16;;;;;;;5.60;4.82;;;5.50;99.90;;;;;;5062645;28;20024;-65
2021/11/27 10:05:23;;;;;;;6.13;5.53;;;5.50;99.90;;;;;;5056540;28;20035;-66
2021/11/27 10:07:52;;;;;;;6.25;5.18;;;5.60;99.90;;;;;;5057992;28;20041;-67
2021/11/27 10:10:18;;;;;;;7.72;5.50;;;5.60;99.90;;;;;;5060146;28;20192;-67
2021/11/27 10:12:44;;;;;;;7.30;5.63;;;5.60;99.90;;;;;;5066066;28;20033;-67
2021/11/27 10:15:11;;;;;;;6.25;5.00;;;5.60;99.90;;;;;;5061704;28;20486;-67
2021/11/27 10:17:37;;;;;;;9.35;5.95;;;5.60;99.90;;;;;;5062627;28;20383;-69
2021/11/27 10:20:07;;;;;;;7.07;5.97;;;5.60;99.90;;;;;;5059402;28;20044;-69
2021/11/27 10:22:51;;;;;;;5.65;5.15;;;5.60;99.90;;;;;;5063753;28;20390;-70
2021/11/27 10:25:41;;;;;;;6.15;5.43;;;5.60;99.90;;;;;;5061309;28;20044;-70
2021/11/27 10:28:18;;;;;;;5.65;5.10;;;5.60;99.90;;;;;;5092494;28;20036;-70
2021/11/27 10:30:58;;;;;;;7.00;5.60;;;5.60;99.90;;;;;;5057049;28;20056;-70
2021/11/27 10:33:24;;;;;;;7.22;4.82;;;5.60;99.90;;;;;;5062334;28;20048;-70
2021/11/27 10:35:53;;;;;;;5.25;4.78;;;5.50;99.90;;;;;;5091326;28;20061;-70
2021/11/27 10:38:19;;;;;;;6.95;5.32;;;5.50;99.90;;;;;;5062727;28;20416;-70
2021/11/27 10:40:55;;;;;;;6.00;5.10;;;5.50;99.90;;;;;;5060989;28;20043;-70
2021/11/27 10:43:21;;;;;;;9.52;4.85;;;5.50;99.90;;;;;;5064230;28;20098;-70
2021/11/27 10:45:48;;;;;;;6.20;4.88;;;5.40;99.90;;;;;;5064578;28;20036;-70
2021/11/27 10:48:17;;;;;;;5.75;4.28;;;5.40;99.90;;;;;;5064358;28;20111;-70
2021/11/27 10:50:49;;;;;;;8.20;4.97;;;5.40;99.90;;;;;;5064186;28;20032;-70
2021/11/27 10:53:18;;;;;;;10.13;4.80;;;5.30;99.90;;;;;;5062104;28;20048;-70
2021/11/27 10:55:44;;;;;;;3.58;3.28;;;5.30;99.90;;;;;;5065653;28;20085;-70
2021/11/27 10:58:12;;;;;;;6.38;4.47;;;5.30;99.90;;;;;;5060928;28;20037;-70
2021/11/27 11:00:44;;;;;;;7.75;5.00;;;5.30;99.90;;;;;;5061193;28;20075;-70
2021/11/27 11:03:30;;;;;;;7.30;4.50;;;5.30;99.90;;;;;;5064945;28;20485;-70
2021/11/27 11:05:58;;;;;;;6.10;3.55;;;5.30;99.90;;;;;;5063529;28;20124;-70
2021/11/27 11:08:38;;;;;;;4.38;3.97;;;5.20;99.90;;;;;;5062905;28;20059;-70
2021/11/27 11:11:22;;;;;;;4.97;4.10;;;5.20;99.90;;;;;;5063145;28;20501;-70
2021/11/27 11:13:54;;;;;;;5.20;4.70;;;5.20;99.90;;;;;;5064188;28;20071;-70
2021/11/27 11:16:22;;;;;;;4.13;3.80;;;5.20;99.90;;;;;;5061692;28;20085;-70
2021/11/27 11:18:51;;;;;;;4.78;3.78;;;5.20;99.90;;;;;;5063302;28;20076;-70
2021/11/27 11:21:19;;;;;;;5.57;3.30;;;5.20;99.90;;;;;;5063317;28;20037;-70
2021/11/27 11:23:45;;;;;;;3.95;3.60;;;5.20;99.90;;;;;;5063234;28;20144;-69
2021/11/27 11:26:15;;;;;;;4.40;3.75;;;5.10;99.90;;;;;;5063732;28;20119;-69
2021/11/27 11:28:56;;;;;;;5.75;4.00;;;5.20;99.90;;;;;;5063209;28;20045;-69
2021/11/27 11:31:26;;;;;;;3.53;2.60;;;5.10;99.90;;;;;;5066374;28;20056;-69
2021/11/27 11:33:54;;;;;;;2.78;2.42;;;5.20;99.90;;;;;;5060448;28;20081;-69
2021/11/27 11:36:22;;;;;;;3.95;2.03;;;5.10;99.90;;;;;;5059850;28;20040;-70
2021/11/27 11:38:59;;;;;;;2.78;2.28;;;5.10;99.90;;;;;;5061372;27;20087;-69
2021/11/27 11:41:27;;;;;;;2.40;2.20;;;5.10;99.90;;;;;;5061954;28;21723;-69
2021/11/27 11:43:53;;;;;;;4.63;1.50;;;5.10;99.90;;;;;;5065052;28;20120;-69
2021/11/27 11:46:20;;;;;;;1.58;1.20;;;5.10;99.90;;;;;;5060950;28;20486;-69
2021/11/27 11:48:58;;;;;;;5.20;1.67;;;5.10;99.90;;;;;;5062880;28;20040;-69
2021/11/27 11:51:52;;;;;;;1.90;1.05;;;5.00;99.90;;;;;;5065832;28;20394;-69
2021/11/27 11:54:21;;;;;;;3.78;1.25;;;5.00;99.90;;;;;;5063050;28;20117;-69
2021/11/27 11:56:47;;;;;;;2.95;1.10;;;5.00;99.90;;;;;;5062700;28;20052;-69
2021/11/27 11:59:26;;;;;;;1.05;0.88;;;4.90;99.90;;;;;;5061621;28;20039;-69
2021/11/27 12:02:27;;;;;;;1.98;1.10;;;5.00;99.90;;;;;;5062409;28;20040;-69
2021/11/27 12:05:05;;;;;;;1.95;0.57;;;5.00;99.90;;;;;;5036550;28;20040;-69
2021/11/27 12:08:01;;;;;;;1.45;0.50;;;4.90;99.90;;;;;;5091465;28;20041;-69
2021/11/27 12:10:44;;;;;;;1.83;0.55;;;4.90;99.90;;;;;;5058905;28;20574;-69
2021/11/27 12:13:10;;;;;;;1.65;0.88;;;5.00;99.90;;;;;;5062660;28;20037;-69
2021/11/27 12:15:40;;;;;;;4.78;0.85;;;4.90;99.90;;;;;;5063045;28;20513;-69
2021/11/27 12:18:18;;;;;;;2.38;0.90;;;4.90;99.90;;;;;;5063811;28;20025;-69
2021/11/27 12:20:47;;;;;;;1.63;0.80;;;4.80;99.90;;;;;;5060582;28;20091;-69
2021/11/27 12:26:11;;;;;;;4.03;1.63;;;4.90;99.90;;;;;;5065571;28;20355;-69
2021/11/27 12:28:42;;;;;;;5.15;1.00;;;4.80;99.90;;;;;;5060817;28;20045;-69
2021/11/27 12:31:11;;;;;;;2.30;0.80;;;4.80;99.90;;;;;;5060467;28;20041;-69
2021/11/27 12:33:46;;;;;;;3.88;0.98;;;4.80;99.90;;;;;;5058419;28;20052;-69
2021/11/27 12:39:10;;;;;;;3.28;1.10;;;4.80;99.90;;;;;;5061296;28;20044;-69
2021/11/27 12:41:50;;;;;;;5.10;1.20;;;4.80;99.90;;;;;;5059862;28;20516;-69
2021/11/27 12:44:28;;;;;;;1.83;0.82;;;4.70;99.90;;;;;;5061248;28;20050;-69
2021/11/27 12:47:00;;;;;;;2.00;0.90;;;4.70;99.90;;;;;;5060423;28;20053;-69
2021/11/27 12:49:32;;;;;;;0.98;0.55;;;4.80;99.90;;;;;;5059173;28;20051;-69
2021/11/27 12:52:23;;;;;;;3.40;0.80;;;4.80;99.90;;;;;;5061401;28;20045;-69
2021/11/27 12:55:18;;;;;;;2.42;0.95;;;4.80;99.90;;;;;;5086551;28;20498;-69
2021/11/27 12:57:46;;;;;;;1.30;0.65;;;4.80;99.90;;;;;;5058320;28;20074;-69
2021/11/27 13:00:19;;;;;;;0.93;0.52;;;4.90;99.90;;;;;;5062673;28;20036;-69